createdAt,value
2018-07-09T00:01:43.507Z,76.20
2018-07-09T00:04:46.726Z,76.20
2018-07-09T00:07:50.002Z,76.40
2018-07-09T00:11:00.474Z,76.50
2018-07-09T00:17:06.658Z,77.20
2018-07-09T00:20:09.930Z,77.50
2018-07-09T00:23:13.278Z,77.60
2018-07-09T00:26:16.479Z,77.70
2018-07-09T00:29:19.896Z,77.80
2018-07-09T00:32:23.200Z,78.00
2018-07-09T00:35:26.909Z,78.40
2018-07-09T00:38:30.159Z,78.40
2018-07-09T00:41:33.450Z,78.30
2018-07-09T00:47:39.706Z,78.40
2018-07-09T00:50:42.930Z,78.30
2018-07-09T00:53:46.122Z,78.40
2018-07-09T00:56:49.823Z,78.60
2018-07-09T01:02:56.194Z,79.00
2018-07-09T01:05:59.366Z,79.30
2018-07-09T01:09:02.986Z,79.80
2018-07-09T01:12:11.140Z,80.10
2018-07-09T01:15:14.365Z,80.30
2018-07-09T01:18:17.598Z,80.60
2018-07-09T01:24:24.718Z,81.30
2018-07-09T01:27:27.950Z,81.20
2018-07-09T01:30:34.906Z,81.20
2018-07-09T01:33:38.161Z,81.10
2018-07-09T01:36:41.438Z,81.10
2018-07-09T01:39:44.779Z,81.00
2018-07-09T01:45:50.926Z,81.00
2018-07-09T01:48:54.198Z,80.90
2018-07-09T01:51:57.397Z,81.00
2018-07-09T01:55:01.002Z,81.00
2018-07-09T01:58:04.685Z,81.00
2018-07-09T02:01:07.926Z,81.00
2018-07-09T02:04:11.229Z,81.00
2018-07-09T02:07:14.416Z,81.60
2018-07-09T02:10:17.729Z,81.40
2018-07-09T02:13:21.044Z,82.20
2018-07-09T02:16:24.382Z,83.30
2018-07-09T02:19:27.694Z,83.10
2018-07-09T02:22:30.761Z,83.20
2018-07-09T02:25:33.857Z,83.70
2018-07-09T02:28:36.949Z,84.10
2018-07-09T02:31:40.038Z,84.40
2018-07-09T02:34:43.131Z,84.40
2018-07-09T02:37:46.222Z,84.90
2018-07-09T02:40:49.333Z,85.00
2018-07-09T02:43:52.429Z,85.50
2018-07-09T02:46:55.501Z,85.70
2018-07-09T02:49:58.566Z,85.80
2018-07-09T02:53:01.634Z,86.00
2018-07-09T02:56:04.704Z,86.50
2018-07-09T02:59:07.794Z,86.70
2018-07-09T03:02:10.881Z,87.10
2018-07-09T03:05:13.974Z,87.40
2018-07-09T03:08:17.054Z,87.60
2018-07-09T03:11:20.150Z,87.70
2018-07-09T03:14:23.350Z,88.10
2018-07-09T03:17:26.653Z,88.30
2018-07-09T03:20:29.966Z,88.30
2018-07-09T03:26:36.132Z,88.50
2018-07-09T03:29:39.460Z,88.20
2018-07-09T03:32:42.678Z,88.20
2018-07-09T03:35:46.928Z,88.60
2018-07-09T03:38:50.230Z,88.70
2018-07-09T03:41:53.890Z,89.00
2018-07-09T03:44:57.108Z,89.40
2018-07-09T03:48:00.297Z,89.40
2018-07-09T03:51:03.590Z,89.80
2018-07-09T03:54:06.762Z,90.10
2018-07-09T03:57:09.986Z,90.50
2018-07-09T04:00:13.197Z,90.70
2018-07-09T04:03:16.570Z,90.90
2018-07-09T04:06:19.802Z,91.20
2018-07-09T04:09:23.152Z,91.40
2018-07-09T04:12:26.435Z,91.50
2018-07-09T04:15:29.643Z,91.40
2018-07-09T04:18:32.874Z,91.60
2018-07-09T04:21:36.055Z,91.40
2018-07-09T04:24:39.273Z,91.10
2018-07-09T04:27:42.566Z,90.90
2018-07-09T04:30:46.134Z,90.60
2018-07-09T04:33:49.366Z,90.40
2018-07-09T04:36:52.559Z,90.00
2018-07-09T04:39:55.818Z,90.00
2018-07-09T04:42:59.186Z,90.00
2018-07-09T04:46:02.530Z,89.80
2018-07-09T04:49:05.854Z,89.00
2018-07-09T04:52:09.107Z,89.10
2018-07-09T04:55:12.373Z,89.60
2018-07-09T04:58:15.660Z,89.80
2018-07-09T05:01:18.894Z,90.10
2018-07-09T05:04:22.054Z,89.70
2018-07-09T05:07:25.344Z,88.80
2018-07-09T05:10:28.642Z,86.70
2018-07-09T05:13:31.818Z,85.60
2018-07-09T05:19:37.999Z,85.00
2018-07-09T05:22:41.171Z,84.50
2018-07-09T05:25:44.435Z,86.00
2018-07-09T05:28:47.762Z,85.10
2018-07-09T05:31:51.011Z,84.50
2018-07-09T05:34:54.311Z,84.10
2018-07-09T05:37:57.569Z,82.20
2018-07-09T05:41:00.730Z,81.50
2018-07-09T05:44:03.902Z,81.20
2018-07-09T05:47:07.519Z,80.90
2018-07-09T05:50:10.854Z,81.30
2018-07-09T05:53:14.174Z,81.20
2018-07-09T05:56:17.498Z,80.10
2018-07-09T05:59:20.747Z,79.10
2018-07-09T06:02:24.018Z,79.50
2018-07-09T06:05:27.263Z,80.50
2018-07-09T06:08:30.512Z,81.60
2018-07-09T06:11:33.775Z,82.10
2018-07-09T06:14:37.035Z,82.50
2018-07-09T06:17:40.331Z,83.30
2018-07-09T06:23:46.497Z,83.00
2018-07-09T06:26:49.677Z,82.50
2018-07-09T06:29:52.911Z,80.40
2018-07-09T06:32:56.240Z,74.50
2018-07-09T06:35:59.407Z,68.20
2018-07-09T06:39:02.670Z,60.00
2018-07-09T06:42:05.959Z,55.10
2018-07-09T06:45:09.120Z,51.80
2018-07-09T06:48:12.408Z,50.80
2018-07-09T06:54:18.529Z,49.40
2018-07-09T06:57:21.646Z,49.00
2018-07-09T07:03:27.578Z,42.30
2018-07-09T07:06:30.658Z,41.60
2018-07-09T07:09:33.742Z,41.20
2018-07-09T07:12:36.819Z,40.80
2018-07-09T07:15:39.878Z,40.00
2018-07-09T07:18:42.989Z,39.50
2018-07-09T07:21:46.053Z,39.80
2018-07-09T07:24:49.237Z,39.20
2018-07-09T07:27:52.590Z,37.10
2018-07-09T07:30:55.706Z,36.80
2018-07-09T07:33:58.758Z,35.70
2018-07-09T07:37:01.829Z,34.60
2018-07-09T07:40:04.884Z,33.10
2018-07-09T07:43:07.985Z,32.90
2018-07-09T07:46:11.070Z,33.40
2018-07-09T07:49:14.165Z,34.10
2018-07-09T07:52:17.261Z,32.60
2018-07-09T07:55:20.330Z,32.60
2018-07-09T07:58:23.421Z,31.50
2018-07-09T08:01:26.544Z,32.40
2018-07-09T08:04:29.633Z,33.00
2018-07-09T08:07:32.724Z,33.60
2018-07-09T08:10:35.820Z,33.20
2018-07-09T08:13:39.006Z,34.30
2018-07-09T08:16:42.134Z,34.30
2018-07-09T08:19:45.346Z,33.50
2018-07-09T08:22:48.542Z,32.50
2018-07-09T08:25:51.633Z,32.30
2018-07-09T08:28:54.721Z,33.60
2018-07-09T08:32:05.564Z,34.00
2018-07-09T08:35:08.640Z,35.60
2018-07-09T08:38:11.753Z,36.00
2018-07-09T08:41:14.869Z,36.70
2018-07-09T08:44:17.994Z,36.30
2018-07-09T08:47:21.198Z,36.40
2018-07-09T08:50:24.353Z,37.10
2018-07-09T08:53:27.586Z,37.80
2018-07-09T08:56:30.826Z,38.10
2018-07-09T08:59:34.341Z,37.90
2018-07-09T09:02:37.574Z,38.20
2018-07-09T09:05:40.880Z,38.30
2018-07-09T09:08:44.062Z,39.00
2018-07-09T09:11:47.370Z,39.30
2018-07-09T09:14:50.625Z,39.80
2018-07-09T09:17:53.775Z,39.90
2018-07-09T09:24:00.001Z,40.60
2018-07-09T09:30:31.339Z,40.10
2018-07-09T09:33:34.405Z,41.00
2018-07-09T09:36:37.520Z,41.60
2018-07-09T09:39:40.625Z,42.20
2018-07-09T09:42:43.694Z,42.90
2018-07-09T09:45:46.801Z,43.70
2018-07-09T09:48:49.861Z,43.90
2018-07-09T09:51:52.933Z,44.80
2018-07-09T09:54:56.052Z,45.60
2018-07-09T09:57:59.071Z,46.80
2018-07-09T10:01:02.145Z,47.70
2018-07-09T10:04:05.393Z,48.10
2018-07-09T10:07:08.453Z,49.30
2018-07-09T10:10:11.534Z,49.10
2018-07-09T10:13:14.621Z,50.20
2018-07-09T10:16:17.713Z,50.90
2018-07-09T10:19:20.809Z,50.20
2018-07-09T10:22:23.892Z,50.40
2018-07-09T10:25:26.978Z,50.70
2018-07-09T10:28:30.058Z,50.30
2018-07-09T10:31:33.185Z,50.50
2018-07-09T10:37:39.173Z,49.80
2018-07-09T10:40:42.250Z,50.00
2018-07-09T10:43:45.321Z,50.00
2018-07-09T10:46:48.414Z,50.70
2018-07-09T10:49:51.507Z,50.80
2018-07-09T10:52:54.598Z,50.60
2018-07-09T10:55:57.717Z,50.00
2018-07-09T10:59:00.785Z,50.00
2018-07-09T11:02:03.885Z,50.20
2018-07-09T11:05:06.973Z,51.30
2018-07-09T11:08:10.069Z,50.90
2018-07-09T11:11:13.165Z,51.00
2018-07-09T11:14:16.258Z,51.40
2018-07-09T11:17:19.353Z,51.90
2018-07-09T11:20:22.442Z,52.20
2018-07-09T11:23:25.551Z,51.80
2018-07-09T11:26:28.616Z,51.80
2018-07-09T11:29:31.892Z,51.70
2018-07-09T11:32:34.981Z,51.80
2018-07-09T11:35:38.067Z,51.80
2018-07-09T11:38:41.149Z,52.00
2018-07-09T11:41:44.238Z,51.80
2018-07-09T11:44:47.330Z,52.00
2018-07-09T11:47:50.389Z,52.80
2018-07-09T11:50:53.492Z,52.70
2018-07-09T11:53:56.609Z,53.40
2018-07-09T11:56:59.710Z,53.90
2018-07-09T12:00:03.122Z,54.70
2018-07-09T12:03:06.217Z,55.50
2018-07-09T12:06:09.389Z,56.10
2018-07-09T12:09:12.541Z,55.90
2018-07-09T12:12:15.650Z,56.90
2018-07-09T12:15:18.696Z,57.70
2018-07-09T12:21:24.630Z,59.20
2018-07-09T12:24:27.739Z,58.80
2018-07-09T12:27:31.037Z,59.20
2018-07-09T12:30:34.093Z,59.20
2018-07-09T12:33:37.148Z,58.80
2018-07-09T12:39:43.098Z,58.80
2018-07-09T12:42:46.177Z,58.40
2018-07-09T12:45:49.245Z,58.20
2018-07-09T12:48:52.313Z,58.50
2018-07-09T12:51:55.410Z,59.10
2018-07-09T12:54:58.486Z,59.40
2018-07-09T13:01:04.392Z,61.20
2018-07-09T13:04:07.459Z,62.40
2018-07-09T13:07:10.558Z,62.70
2018-07-09T13:10:13.630Z,63.10
2018-07-09T13:13:16.703Z,63.10
2018-07-09T13:16:19.797Z,63.70
2018-07-09T13:19:22.890Z,64.00
2018-07-09T13:22:25.984Z,63.90
2018-07-09T13:25:29.077Z,63.60
2018-07-09T13:28:32.187Z,62.90
2018-07-09T13:34:38.117Z,60.80
2018-07-09T13:37:41.309Z,59.90
2018-07-09T13:40:44.382Z,60.90
2018-07-09T13:43:47.473Z,62.50
2018-07-09T13:46:50.565Z,62.60
2018-07-09T13:49:54.253Z,63.30
2018-07-09T13:52:57.336Z,63.90
2018-07-09T13:59:03.350Z,63.60
2018-07-09T14:02:06.438Z,62.80
2018-07-09T14:05:09.500Z,62.90
2018-07-09T14:08:12.609Z,62.50
2018-07-09T14:11:15.690Z,62.40
2018-07-09T14:14:18.753Z,62.00
2018-07-09T14:17:21.808Z,61.20
2018-07-09T14:20:27.669Z,60.40
2018-07-09T14:23:30.726Z,60.10
2018-07-09T14:26:33.800Z,59.90
2018-07-09T14:29:36.886Z,60.40
2018-07-09T14:32:40.162Z,60.50
2018-07-09T14:35:43.212Z,61.50
2018-07-09T14:38:46.269Z,61.80
2018-07-09T14:41:49.338Z,61.30
2018-07-09T14:44:52.622Z,61.70
2018-07-09T14:47:55.678Z,61.90
2018-07-09T14:50:58.758Z,62.50
2018-07-09T14:54:01.843Z,62.50
2018-07-09T14:57:04.975Z,62.50
2018-07-09T15:00:08.186Z,62.90
2018-07-09T15:03:11.365Z,62.90
2018-07-09T15:06:14.554Z,62.50
2018-07-09T15:09:17.822Z,62.50
2018-07-09T15:12:20.993Z,62.70
2018-07-09T15:15:24.187Z,62.60
2018-07-09T15:18:27.374Z,62.90
2018-07-09T15:21:30.587Z,63.00
2018-07-09T15:24:33.878Z,63.60
2018-07-09T15:27:37.081Z,63.60
2018-07-09T15:30:40.324Z,64.10
2018-07-09T15:33:43.548Z,64.90
2018-07-09T15:36:46.745Z,66.00
2018-07-09T15:39:49.950Z,67.10
2018-07-09T15:42:53.083Z,67.90
2018-07-09T15:45:56.258Z,67.90
2018-07-09T15:48:59.884Z,68.30
2018-07-09T15:55:37.735Z,69.20
2018-07-09T15:58:40.992Z,68.80
2018-07-09T16:01:44.201Z,68.30
2018-07-09T16:04:47.447Z,68.30
2018-07-09T16:07:50.618Z,67.60
2018-07-09T16:10:53.774Z,67.10
2018-07-09T16:13:56.963Z,66.20
2018-07-09T16:17:00.195Z,66.70
2018-07-09T16:20:03.426Z,67.00
2018-07-09T16:23:06.626Z,67.10
2018-07-09T16:26:09.979Z,67.20
2018-07-09T16:29:13.184Z,67.30
2018-07-09T16:32:16.420Z,67.20
2018-07-09T16:35:19.662Z,67.20
2018-07-09T16:38:22.858Z,67.70
2018-07-09T16:41:26.093Z,67.80
2018-07-09T16:44:29.394Z,68.80
2018-07-09T16:47:32.601Z,68.00
2018-07-09T16:50:35.795Z,68.50
2018-07-09T16:53:38.985Z,68.90
2018-07-09T16:56:42.219Z,69.30
2018-07-09T16:59:45.432Z,69.60
2018-07-09T17:05:51.697Z,69.60
2018-07-09T17:08:54.851Z,69.80
2018-07-09T17:11:58.048Z,69.80
2018-07-09T17:15:01.271Z,70.30
2018-07-09T17:18:04.946Z,70.90
2018-07-09T17:21:08.198Z,70.90
2018-07-09T17:27:14.434Z,72.00
2018-07-09T17:30:17.582Z,72.40
2018-07-09T17:33:20.834Z,72.80
2018-07-09T17:36:24.099Z,73.10
2018-07-09T17:39:27.295Z,73.30
2018-07-09T17:42:30.570Z,73.20
2018-07-09T17:45:33.785Z,73.40
2018-07-09T17:48:36.971Z,73.60
2018-07-09T17:51:40.186Z,73.90
2018-07-09T17:54:43.411Z,74.20
2018-07-09T17:57:46.724Z,74.30
2018-07-09T18:00:49.919Z,74.50
2018-07-09T18:03:53.138Z,74.70
2018-07-09T18:06:56.500Z,74.80
2018-07-09T18:09:59.753Z,75.30
2018-07-09T18:13:02.967Z,75.60
2018-07-09T18:16:06.202Z,75.90
2018-07-09T18:19:09.637Z,75.90
2018-07-09T18:22:12.710Z,76.10
2018-07-09T18:31:21.904Z,76.20
2018-07-09T18:34:25.007Z,76.30
2018-07-09T18:37:28.077Z,76.20
2018-07-09T18:40:31.166Z,76.60
2018-07-09T18:43:34.250Z,77.00
2018-07-09T18:46:37.361Z,76.90
2018-07-09T18:49:40.421Z,77.40
2018-07-09T18:52:43.516Z,77.50
2018-07-09T18:55:46.645Z,77.60
2018-07-09T18:58:49.725Z,77.60
2018-07-09T19:01:52.799Z,77.70
2018-07-09T19:04:55.877Z,77.80
2018-07-09T19:14:05.121Z,78.30
2018-07-09T19:17:49.021Z,78.20
2018-07-09T19:21:44.558Z,77.70
2018-07-09T19:24:46.783Z,77.90
2018-07-09T19:27:49.062Z,78.10
2018-07-09T19:33:53.808Z,78.30
2018-07-09T19:36:56.209Z,78.50
2018-07-09T19:39:58.269Z,78.40
2018-07-09T19:43:00.523Z,78.60
2018-07-09T19:46:02.853Z,79.40
2018-07-09T19:49:04.962Z,78.90
2018-07-09T19:52:07.242Z,79.00
2018-07-09T19:55:09.431Z,79.10
2018-07-09T19:58:11.609Z,79.10
2018-07-09T20:01:13.761Z,79.10
2018-07-09T20:04:15.913Z,79.10
2018-07-09T20:10:25.964Z,79.00
2018-07-09T20:14:33.372Z,79.20
2018-07-09T20:17:36.245Z,79.30
2018-07-09T20:20:38.401Z,79.50
2018-07-09T20:23:40.553Z,79.70
2018-07-09T20:26:42.728Z,79.90
2018-07-09T20:29:44.885Z,80.00
2018-07-09T20:32:47.228Z,80.20
2018-07-09T20:35:49.377Z,80.40
2018-07-09T20:38:51.551Z,80.50
2018-07-09T20:41:53.723Z,80.70
2018-07-09T20:44:55.898Z,80.80
2018-07-09T20:47:58.070Z,81.00
2018-07-09T20:54:02.641Z,82.00
2018-07-09T20:57:04.813Z,81.40
2018-07-09T21:00:06.981Z,81.50
2018-07-09T21:03:09.153Z,81.60
2018-07-09T21:06:11.318Z,82.10
2018-07-09T21:09:13.498Z,82.20
2018-07-09T21:12:15.669Z,82.10
2018-07-09T21:15:18.063Z,82.20
2018-07-09T21:18:20.053Z,82.20
2018-07-09T21:21:26.473Z,82.50
2018-07-09T21:24:28.648Z,82.90
2018-07-09T21:27:30.862Z,83.90
2018-07-09T21:30:33.026Z,83.20
2018-07-09T21:33:35.206Z,83.40
2018-07-09T21:36:37.382Z,83.60
2018-07-09T21:39:39.533Z,83.50
2018-07-09T21:42:41.708Z,83.50
2018-07-09T21:45:43.852Z,83.70
2018-07-09T21:48:46.094Z,83.70
2018-07-09T21:51:48.186Z,83.60
2018-07-09T21:54:50.356Z,83.30
2018-07-09T21:57:52.530Z,83.50
2018-07-09T22:00:54.700Z,83.50
2018-07-09T22:03:56.874Z,83.50
2018-07-09T22:06:59.045Z,83.20
2018-07-09T22:10:01.217Z,83.30
2018-07-09T22:13:03.389Z,83.60
2018-07-09T22:16:05.618Z,83.80
2018-07-09T22:19:07.785Z,83.80
2018-07-09T22:22:09.941Z,83.80
2018-07-09T22:28:14.514Z,83.80
2018-07-09T22:31:17.603Z,83.70
2018-07-09T22:34:20.669Z,83.70
2018-07-09T22:37:23.757Z,83.60
2018-07-09T22:40:26.826Z,83.80
2018-07-09T22:43:41.331Z,84.30
2018-07-09T22:46:44.584Z,83.70
2018-07-09T22:49:47.645Z,83.70
2018-07-09T22:52:50.713Z,83.70
2018-07-09T22:56:06.260Z,84.00
2018-07-09T22:59:09.314Z,84.30
2018-07-09T23:02:12.381Z,84.40
2018-07-09T23:05:15.453Z,84.50
2018-07-09T23:08:18.531Z,84.40
2018-07-09T23:11:34.851Z,84.60
2018-07-09T23:14:51.413Z,84.70
2018-07-09T23:18:06.042Z,84.60
2018-07-09T23:21:35.885Z,84.80
2018-07-09T23:24:38.033Z,85.00
2018-07-09T23:27:40.192Z,84.80
2018-07-09T23:30:42.368Z,85.80
2018-07-09T23:33:44.518Z,85.00
2018-07-09T23:39:49.102Z,82.80
2018-07-09T23:42:51.256Z,82.50
2018-07-09T23:45:53.427Z,82.30
2018-07-09T23:48:55.584Z,80.90
2018-07-09T23:51:57.739Z,80.10
2018-07-09T23:54:59.941Z,79.80
2018-07-09T23:59:12.101Z,79.90
